Time;durP1;ratioP1;P1;durP2;ratioP2;P2;SDS_P1;SDS_P2;PMS_P1;PMS_P2;Temp;Humidity;BMP_temperature;BMP_pressure;BME280_temperature;BME280_humidity;BME280_pressure;Samples;Min_cycle;Max_cycle;Signal;HPM_P1;HPM_P2
2022/12/08 00:02:12;;;;;;;5.90;1.50;;;23.10;99.90;;;;;;5091960;28;20256;-80
2022/12/08 00:10:15;;;;;;;7.57;1.42;;;23.20;99.90;;;;;;5093675;28;20210;-80
2022/12/08 00:12:46;;;;;;;7.70;1.50;;;23.40;99.90;;;;;;5089888;28;20282;-81
2022/12/08 00:15:16;;;;;;;7.10;1.70;;;23.30;99.90;;;;;;5090536;28;20689;-80
2022/12/08 00:17:47;;;;;;;4.93;1.30;;;23.20;99.90;;;;;;5088453;28;20287;-81
2022/12/08 00:20:18;;;;;;;4.97;1.42;;;23.10;99.90;;;;;;5087716;28;20191;-80
2022/12/08 00:22:52;;;;;;;8.32;1.75;;;23.20;99.90;;;;;;5091317;28;20286;-79
2022/12/08 00:25:23;;;;;;;6.45;1.52;;;23.20;99.90;;;;;;5090186;28;20195;-79
2022/12/08 00:27:54;;;;;;;6.45;1.50;;;23.20;99.90;;;;;;5091588;28;20226;-81
2022/12/08 00:30:24;;;;;;;6.63;1.50;;;23.30;99.90;;;;;;5084266;28;20576;-80
2022/12/08 00:32:55;;;;;;;7.55;1.42;;;23.40;99.90;;;;;;5085608;28;20202;-80
2022/12/08 00:35:26;;;;;;;4.63;1.30;;;23.50;99.90;;;;;;5091272;28;20199;-81
2022/12/08 00:37:58;;;;;;;6.63;1.40;;;23.40;99.80;;;;;;5089295;28;20294;-81
2022/12/08 00:40:29;;;;;;;6.35;1.77;;;23.60;99.90;;;;;;5090844;28;20237;-80
2022/12/08 00:43:00;;;;;;;5.35;1.33;;;23.70;99.90;;;;;;5090799;28;20654;-81
2022/12/08 00:45:31;;;;;;;4.80;1.48;;;23.70;99.50;;;;;;5074934;28;20199;-80
2022/12/08 00:48:02;;;;;;;7.00;1.65;;;23.60;99.50;;;;;;5089619;28;20215;-80
2022/12/08 00:50:32;;;;;;;4.45;1.35;;;23.50;99.70;;;;;;5091474;28;20199;-81
2022/12/08 00:53:05;;;;;;;5.07;1.38;;;23.30;99.90;;;;;;5089866;28;20306;-80
2022/12/08 00:55:36;;;;;;;6.00;1.40;;;23.50;99.60;;;;;;5089354;28;20191;-81
2022/12/08 00:58:07;;;;;;;5.05;1.30;;;23.50;99.00;;;;;;5090786;28;20217;-80
2022/12/08 01:00:38;;;;;;;6.70;1.38;;;23.40;98.10;;;;;;5089427;28;20217;-80
2022/12/08 01:03:10;;;;;;;10.68;1.80;;;23.50;98.60;;;;;;5090355;28;20191;-81
2022/12/08 01:05:41;;;;;;;5.82;1.75;;;23.70;97.70;;;;;;5090594;28;20199;-80
2022/12/08 01:08:15;;;;;;;7.25;1.63;;;23.90;96.70;;;;;;5090576;28;20642;-81
2022/12/08 01:10:46;;;;;;;6.75;1.55;;;23.90;96.40;;;;;;5087108;28;20192;-80
2022/12/08 01:13:16;;;;;;;8.27;1.55;;;24.10;96.50;;;;;;5092190;28;20231;-81
2022/12/08 01:15:47;;;;;;;6.82;1.90;;;24.10;95.40;;;;;;5091340;28;20729;-81
2022/12/08 01:18:19;;;;;;;4.80;1.52;;;24.20;95.30;;;;;;5085859;28;20217;-81
2022/12/08 01:20:49;;;;;;;5.38;1.42;;;24.30;94.20;;;;;;5072501;28;20601;-80
2022/12/08 01:23:22;;;;;;;7.25;1.63;;;24.40;94.30;;;;;;5087999;28;20199;-81
2022/12/08 01:25:53;;;;;;;9.80;1.77;;;24.40;93.80;;;;;;5089969;28;20200;-80
2022/12/08 01:28:24;;;;;;;6.57;1.67;;;24.50;93.50;;;;;;5093170;28;20238;-81
2022/12/08 01:30:55;;;;;;;8.45;1.83;;;24.20;93.60;;;;;;5087994;28;20213;-80
2022/12/08 01:33:26;;;;;;;9.82;2.05;;;24.30;93.40;;;;;;5085824;28;20198;-81
2022/12/08 01:35:57;;;;;;;8.05;1.70;;;24.20;93.30;;;;;;5089985;28;20198;-81
2022/12/08 01:38:30;;;;;;;6.38;1.50;;;24.40;93.20;;;;;;5088624;28;20226;-80
2022/12/08 01:41:01;;;;;;;4.70;1.63;;;24.50;93.00;;;;;;5090187;28;20199;-80
2022/12/08 01:43:52;;;;;;;7.82;1.50;;;24.50;92.90;;;;;;5084423;28;20553;-80
2022/12/08 01:46:23;;;;;;;7.88;1.70;;;24.40;92.30;;;;;;5090389;28;20195;-80
2022/12/08 01:48:56;;;;;;;5.25;1.40;;;24.50;92.40;;;;;;5071193;28;20230;-79
2022/12/08 01:51:28;;;;;;;6.63;2.00;;;24.50;92.40;;;;;;5070450;28;20312;-79
2022/12/08 01:54:00;;;;;;;9.07;1.80;;;24.60;92.60;;;;;;5074641;28;20203;-80
2022/12/08 01:56:37;;;;;;;8.05;1.90;;;24.70;91.60;;;;;;5090481;28;20285;-80
2022/12/08 01:59:08;;;;;;;5.70;1.70;;;24.70;90.60;;;;;;5089010;28;20649;-79
2022/12/08 02:01:39;;;;;;;11.15;1.95;;;24.70;90.50;;;;;;5090773;28;20195;-79
2022/12/08 02:04:11;;;;;;;5.53;1.48;;;24.70;91.20;;;;;;5090494;28;20191;-81
2022/12/08 02:06:45;;;;;;;8.68;1.77;;;24.80;89.60;;;;;;5090778;28;20210;-81
2022/12/08 02:09:18;;;;;;;5.72;1.60;;;24.80;90.60;;;;;;5074930;28;20215;-81
2022/12/08 02:11:49;;;;;;;7.85;1.92;;;24.80;90.40;;;;;;5088242;28;20279;-80
2022/12/08 02:14:20;;;;;;;7.20;1.33;;;24.90;90.30;;;;;;5093369;28;20250;-82
2022/12/08 02:17:01;;;;;;;6.60;1.50;;;24.90;90.20;;;;;;5077898;28;20628;-81
2022/12/08 02:19:57;;;;;;;6.90;1.55;;;24.90;88.40;;;;;;5090911;28;20191;-81
2022/12/08 02:22:38;;;;;;;7.43;1.70;;;24.90;89.80;;;;;;5090581;28;20200;-80
2022/12/08 02:25:20;;;;;;;6.35;1.70;;;24.50;89.80;;;;;;5090950;28;20213;-80
2022/12/08 02:28:04;;;;;;;8.95;1.73;;;24.70;89.40;;;;;;5080526;28;20192;-80
2022/12/08 02:30:47;;;;;;;7.45;2.00;;;24.70;87.80;;;;;;5089076;28;20711;-81
2022/12/08 02:34:01;;;;;;;7.28;1.70;;;24.70;88.50;;;;;;5090647;28;20210;-81
2022/12/08 02:36:39;;;;;;;8.18;1.75;;;24.80;86.80;;;;;;5076138;28;20203;-81
2022/12/08 02:39:19;;;;;;;8.27;1.70;;;25.00;86.10;;;;;;5089753;28;20199;-81
2022/12/08 02:41:55;;;;;;;5.07;1.15;;;25.20;86.50;;;;;;5090194;28;20665;-81
2022/12/08 02:44:34;;;;;;;8.32;1.70;;;25.50;85.70;;;;;;5094033;28;20195;-82
2022/12/08 02:47:10;;;;;;;7.30;1.42;;;25.50;83.50;;;;;;5093614;28;20199;-80
2022/12/08 02:49:40;;;;;;;5.15;1.40;;;25.60;82.20;;;;;;5093241;28;20713;-82
2022/12/08 02:52:43;;;;;;;6.45;1.33;;;25.70;80.80;;;;;;5093919;28;20575;-82
2022/12/08 02:55:23;;;;;;;6.30;1.48;;;25.50;79.10;;;;;;5094529;28;20203;-82
2022/12/08 02:58:21;;;;;;;3.67;1.20;;;25.20;79.00;;;;;;5094506;28;20203;-81
2022/12/08 03:01:08;;;;;;;5.63;1.48;;;25.20;80.90;;;;;;5090272;28;20199;-82
2022/12/08 03:03:48;;;;;;;4.78;1.40;;;25.20;79.40;;;;;;5088719;28;20226;-82
2022/12/08 03:06:30;;;;;;;5.65;1.30;;;25.20;79.90;;;;;;5092146;28;20203;-83
2022/12/08 03:09:11;;;;;;;4.40;1.27;;;25.30;82.00;;;;;;5094344;28;20227;-83
2022/12/08 03:11:48;;;;;;;8.43;1.50;;;25.40;78.90;;;;;;5091581;28;20191;-80
2022/12/08 03:14:21;;;;;;;6.85;1.23;;;25.50;78.60;;;;;;5091779;28;20230;-81
2022/12/08 03:16:56;;;;;;;6.65;1.25;;;25.70;77.10;;;;;;5088418;28;20252;-81
2022/12/08 03:19:31;;;;;;;4.25;1.17;;;25.70;76.10;;;;;;5084020;28;20200;-80
2022/12/08 03:22:03;;;;;;;6.60;1.63;;;25.70;76.20;;;;;;5088629;28;20596;-81
2022/12/08 03:24:39;;;;;;;5.22;1.35;;;25.70;74.30;;;;;;5091561;28;20261;-80
2022/12/08 03:27:12;;;;;;;3.17;0.90;;;25.70;76.10;;;;;;5091247;28;20291;-81
2022/12/08 03:29:44;;;;;;;5.65;1.25;;;25.80;76.30;;;;;;5090980;28;20302;-81
2022/12/08 03:32:21;;;;;;;5.18;1.35;;;26.10;74.40;;;;;;5092576;28;20203;-82
2022/12/08 03:34:55;;;;;;;7.88;1.20;;;26.00;71.30;;;;;;5092013;28;20673;-82
2022/12/08 03:37:26;;;;;;;5.15;1.20;;;26.00;73.70;;;;;;5092543;28;20282;-81
2022/12/08 03:39:59;;;;;;;7.50;1.23;;;25.90;71.30;;;;;;5093588;28;20191;-81
2022/12/08 03:42:29;;;;;;;9.02;1.52;;;25.70;72.50;;;;;;5093473;28;20239;-83
2022/12/08 03:45:00;;;;;;;8.48;1.35;;;25.80;75.30;;;;;;5093855;28;20203;-83
2022/12/08 03:47:31;;;;;;;8.75;1.35;;;26.00;74.10;;;;;;5093866;28;20195;-82
2022/12/08 03:50:02;;;;;;;4.07;1.10;;;26.10;71.40;;;;;;5093352;28;20723;-81
2022/12/08 03:52:32;;;;;;;5.15;1.10;;;25.90;72.90;;;;;;5093468;28;20681;-82
2022/12/08 03:55:06;;;;;;;4.13;1.00;;;26.20;71.70;;;;;;5092694;28;20205;-81
2022/12/08 03:57:36;;;;;;;4.03;0.82;;;26.00;70.60;;;;;;5096094;28;20205;-82
2022/12/08 04:00:09;;;;;;;6.55;1.10;;;26.20;69.00;;;;;;5094811;28;20200;-80
2022/12/08 04:02:39;;;;;;;4.07;0.95;;;26.20;68.00;;;;;;5100237;28;20238;-80
2022/12/08 04:05:10;;;;;;;2.75;1.00;;;26.20;66.90;;;;;;5092945;28;20199;-81
2022/12/08 04:07:42;;;;;;;5.55;1.00;;;26.00;67.00;;;;;;5091690;28;20196;-81
2022/12/08 04:10:15;;;;;;;3.53;1.10;;;25.90;64.50;;;;;;5092966;28;20234;-82
2022/12/08 04:12:46;;;;;;;4.90;1.08;;;25.90;68.30;;;;;;5094531;28;20196;-82
2022/12/08 04:15:16;;;;;;;5.22;1.02;;;26.30;65.00;;;;;;5103938;28;20203;-81
2022/12/08 04:17:47;;;;;;;4.63;1.08;;;26.30;65.00;;;;;;5100103;28;20258;-82
2022/12/08 04:20:19;;;;;;;2.58;1.00;;;26.30;63.60;;;;;;5079806;28;20673;-83
2022/12/08 04:22:51;;;;;;;3.03;0.90;;;26.40;64.30;;;;;;5082085;28;20565;-82
2022/12/08 04:25:26;;;;;;;3.80;1.05;;;26.80;62.40;;;;;;5104558;28;20203;-82
2022/12/08 04:28:03;;;;;;;7.50;1.00;;;26.70;62.10;;;;;;5099757;28;20231;-82
2022/12/08 04:30:46;;;;;;;3.40;1.00;;;26.80;60.50;;;;;;5092844;28;20909;-81
2022/12/08 04:33:20;;;;;;;9.10;1.33;;;27.00;58.80;;;;;;5088552;28;20235;-83
2022/12/08 04:35:51;;;;;;;5.95;1.17;;;26.80;59.80;;;;;;5098073;28;20256;-83
2022/12/08 04:38:22;;;;;;;5.45;1.00;;;26.40;59.70;;;;;;5100267;28;20199;-78
2022/12/08 04:40:56;;;;;;;6.03;1.25;;;26.60;60.60;;;;;;5093398;28;20225;-79
2022/12/08 04:43:28;;;;;;;5.35;1.20;;;26.80;60.70;;;;;;5093318;28;20645;-80
2022/12/08 04:45:59;;;;;;;2.22;0.88;;;26.80;60.00;;;;;;5102114;28;20726;-80
2022/12/08 04:48:30;;;;;;;3.05;0.88;;;27.10;60.40;;;;;;5082249;28;20261;-79
2022/12/08 04:51:02;;;;;;;4.95;0.90;;;27.20;58.90;;;;;;5092006;28;20214;-81
2022/12/08 04:53:33;;;;;;;6.18;1.25;;;27.30;58.70;;;;;;5101265;28;20223;-80
2022/12/08 04:56:07;;;;;;;3.33;0.70;;;27.40;57.40;;;;;;5094693;28;20659;-79
2022/12/08 04:58:38;;;;;;;4.93;1.20;;;27.40;58.10;;;;;;5107374;28;20191;-80
2022/12/08 05:01:09;;;;;;;4.82;1.20;;;27.70;57.20;;;;;;5097546;28;20286;-80
2022/12/08 05:03:47;;;;;;;2.90;1.00;;;27.90;56.10;;;;;;5094165;28;20234;-79
2022/12/08 05:06:18;;;;;;;3.90;1.10;;;27.80;54.80;;;;;;5091134;28;20282;-79
2022/12/08 05:08:49;;;;;;;3.05;1.00;;;27.80;55.00;;;;;;5088356;28;20188;-78
2022/12/08 05:11:22;;;;;;;3.22;1.02;;;27.60;54.50;;;;;;5094242;28;20202;-79
2022/12/08 05:13:53;;;;;;;2.45;0.82;;;27.30;57.20;;;;;;5084215;28;20227;-78
2022/12/08 05:16:24;;;;;;;6.53;1.00;;;27.50;55.40;;;;;;5091003;28;20202;-78
2022/12/08 05:18:55;;;;;;;5.60;1.10;;;27.90;54.70;;;;;;5090312;28;20214;-79
2022/12/08 05:21:26;;;;;;;5.60;1.00;;;27.90;55.20;;;;;;5090374;28;20226;-80
2022/12/08 05:23:56;;;;;;;6.85;1.27;;;28.20;54.40;;;;;;5091711;28;20661;-79
2022/12/08 05:26:30;;;;;;;3.22;0.88;;;28.20;53.60;;;;;;5090997;28;20282;-79
2022/12/08 05:29:01;;;;;;;2.50;0.70;;;28.10;52.50;;;;;;5095317;28;20658;-79
2022/12/08 05:31:32;;;;;;;8.07;1.20;;;28.30;52.70;;;;;;5090118;28;20196;-79
2022/12/08 05:34:03;;;;;;;3.65;1.00;;;28.30;52.60;;;;;;5089952;28;20570;-79
2022/12/08 05:36:34;;;;;;;5.13;1.10;;;28.20;52.50;;;;;;5087631;28;20227;-79
2022/12/08 05:39:05;;;;;;;6.93;1.00;;;28.20;52.60;;;;;;5090125;28;20603;-79
2022/12/08 05:41:38;;;;;;;3.17;1.00;;;28.70;52.20;;;;;;5091982;28;20745;-79
2022/12/08 05:44:09;;;;;;;3.25;1.05;;;29.00;52.20;;;;;;5090130;28;20282;-79
2022/12/08 05:46:40;;;;;;;3.22;0.70;;;29.10;51.20;;;;;;5089309;28;20195;-79
2022/12/08 05:49:11;;;;;;;4.63;0.80;;;29.10;50.60;;;;;;5087047;28;20196;-79
2022/12/08 05:51:42;;;;;;;3.67;0.82;;;29.10;51.00;;;;;;5088880;28;20218;-79
2022/12/08 05:54:13;;;;;;;9.40;1.95;;;29.20;50.00;;;;;;5089586;28;20197;-78
2022/12/08 05:56:46;;;;;;;3.53;1.83;;;29.00;49.70;;;;;;5089597;28;20199;-78
2022/12/08 05:59:17;;;;;;;4.88;1.30;;;28.90;49.80;;;;;;5086666;28;20247;-78
2022/12/08 06:01:48;;;;;;;4.85;1.10;;;28.90;49.90;;;;;;5087175;28;20191;-78
2022/12/08 06:04:19;;;;;;;3.80;0.80;;;28.50;51.00;;;;;;5073815;28;20199;-78
2022/12/08 06:06:49;;;;;;;4.25;0.95;;;28.70;50.80;;;;;;5088358;28;20195;-79
2022/12/08 06:09:20;;;;;;;5.90;1.23;;;28.50;50.50;;;;;;5089543;28;20226;-80
2022/12/08 06:11:53;;;;;;;6.05;1.10;;;28.50;51.70;;;;;;5092783;28;20195;-81
2022/12/08 06:14:24;;;;;;;2.80;0.90;;;28.80;49.10;;;;;;5091680;28;20262;-81
2022/12/08 06:16:55;;;;;;;6.97;0.82;;;28.70;49.30;;;;;;5092120;28;20302;-79
2022/12/08 06:19:26;;;;;;;4.43;0.70;;;28.70;48.70;;;;;;5101014;28;20262;-80
2022/12/08 06:21:57;;;;;;;4.90;1.00;;;28.80;49.20;;;;;;5091943;28;20195;-79
2022/12/08 06:24:28;;;;;;;4.03;1.40;;;28.70;49.30;;;;;;5090405;28;20199;-80
2022/12/08 06:27:00;;;;;;;5.30;1.20;;;28.60;49.20;;;;;;5090464;28;20559;-80
2022/12/08 06:29:31;;;;;;;3.35;0.77;;;28.80;47.70;;;;;;5089228;28;20778;-81
2022/12/08 06:32:02;;;;;;;3.55;0.85;;;28.70;48.10;;;;;;5090328;28;20244;-81
2022/12/08 06:34:33;;;;;;;4.68;1.00;;;28.60;47.60;;;;;;5088813;28;20203;-80
2022/12/08 06:37:03;;;;;;;4.40;1.10;;;28.90;48.70;;;;;;5087990;28;20200;-81
2022/12/08 06:39:34;;;;;;;4.40;0.70;;;29.00;47.10;;;;;;5089871;28;20692;-78
2022/12/08 06:44:59;;;;;;;5.47;0.73;;;29.00;47.50;;;;;;5050527;28;20208;-79
2022/12/08 06:47:30;;;;;;;6.57;0.80;;;29.40;47.30;;;;;;5081405;28;20199;-79
2022/12/08 06:50:03;;;;;;;3.67;0.80;;;29.60;46.10;;;;;;5088611;28;20219;-78
2022/12/08 06:52:34;;;;;;;6.03;1.13;;;29.60;45.10;;;;;;5090027;28;20586;-79
2022/12/08 06:55:05;;;;;;;4.05;1.20;;;29.60;45.90;;;;;;5090439;28;20291;-80
2022/12/08 06:57:38;;;;;;;4.15;0.80;;;30.00;45.70;;;;;;5089844;28;20685;-79
2022/12/08 07:00:10;;;;;;;4.95;1.08;;;30.40;44.30;;;;;;5089419;28;20234;-80
2022/12/08 07:02:43;;;;;;;5.55;1.25;;;30.70;44.30;;;;;;5089649;28;20191;-79
2022/12/08 07:05:14;;;;;;;6.68;0.95;;;30.80;43.80;;;;;;5089806;28;20231;-77
2022/12/08 07:07:45;;;;;;;4.65;1.25;;;30.90;43.00;;;;;;5078406;28;20295;-79
2022/12/08 07:10:15;;;;;;;2.15;0.80;;;30.50;44.00;;;;;;5087427;28;20309;-78
2022/12/08 07:12:48;;;;;;;4.03;1.13;;;30.70;43.30;;;;;;5081147;28;20199;-77
2022/12/08 07:15:19;;;;;;;4.85;0.88;;;30.80;42.50;;;;;;5090134;28;20198;-79
2022/12/08 07:17:51;;;;;;;4.32;1.20;;;30.90;42.80;;;;;;5089560;28;20249;-79
2022/12/08 07:20:23;;;;;;;2.60;1.00;;;30.60;44.00;;;;;;5089573;28;20638;-77
2022/12/08 07:22:54;;;;;;;3.35;1.05;;;30.30;44.70;;;;;;5082878;28;20188;-78
2022/12/08 07:25:25;;;;;;;2.85;1.05;;;30.00;45.10;;;;;;5081075;28;20197;-79
2022/12/08 07:27:58;;;;;;;4.95;1.38;;;30.00;45.20;;;;;;5086586;28;20230;-80
2022/12/08 07:30:29;;;;;;;4.25;1.33;;;29.90;44.80;;;;;;5085582;28;20229;-79
2022/12/08 07:32:59;;;;;;;3.83;1.10;;;29.70;45.20;;;;;;5092776;28;20285;-77
2022/12/08 07:35:30;;;;;;;4.10;1.27;;;29.80;44.70;;;;;;5093332;28;20230;-79
2022/12/08 07:38:01;;;;;;;6.18;1.08;;;29.60;44.90;;;;;;5093563;28;20199;-79
2022/12/08 07:40:32;;;;;;;2.42;0.80;;;29.40;44.80;;;;;;5087404;28;20213;-80
2022/12/08 07:43:04;;;;;;;2.13;0.80;;;29.50;43.80;;;;;;5078824;28;20202;-79
2022/12/08 07:45:35;;;;;;;3.10;1.02;;;29.20;44.60;;;;;;5087040;28;20203;-80
2022/12/08 07:48:07;;;;;;;3.63;1.02;;;29.20;44.90;;;;;;5091548;28;20279;-80
2022/12/08 07:50:37;;;;;;;2.70;0.70;;;29.10;45.30;;;;;;5093729;28;20716;-80
2022/12/08 07:53:10;;;;;;;3.40;0.80;;;29.00;43.60;;;;;;5094328;28;20215;-80
2022/12/08 07:55:43;;;;;;;4.32;1.38;;;28.70;45.00;;;;;;5094261;28;20201;-80
2022/12/08 07:58:16;;;;;;;5.32;1.40;;;28.20;45.40;;;;;;5106836;28;20227;-80
2022/12/08 08:00:47;;;;;;;6.03;1.35;;;27.60;46.00;;;;;;5101942;28;20788;-79
2022/12/08 08:03:17;;;;;;;2.28;1.10;;;27.00;47.20;;;;;;5100865;28;20293;-80
2022/12/08 08:05:49;;;;;;;7.32;1.60;;;26.60;48.20;;;;;;5094544;28;20202;-80
2022/12/08 08:08:20;;;;;;;4.53;1.50;;;26.20;48.70;;;;;;5092655;28;20202;-81
2022/12/08 08:10:51;;;;;;;3.42;1.45;;;25.90;49.80;;;;;;5077856;28;20255;-80
2022/12/08 08:13:24;;;;;;;4.75;1.30;;;25.60;50.90;;;;;;5085883;28;20227;-81
2022/12/08 08:15:55;;;;;;;2.97;1.30;;;25.10;51.80;;;;;;5083385;28;20759;-79
2022/12/08 08:18:26;;;;;;;3.50;1.08;;;24.80;51.90;;;;;;5090132;28;20278;-80
2022/12/08 08:20:59;;;;;;;5.63;1.08;;;24.50;52.20;;;;;;5089038;28;20199;-79
2022/12/08 08:23:30;;;;;;;6.10;1.00;;;24.20;54.40;;;;;;5096165;28;20221;-78
2022/12/08 08:26:02;;;;;;;2.88;1.00;;;24.00;54.40;;;;;;5093034;28;20674;-78
2022/12/08 08:28:35;;;;;;;2.95;0.80;;;23.80;54.50;;;;;;5092987;28;20277;-80
2022/12/08 08:31:07;;;;;;;3.72;0.93;;;23.50;54.70;;;;;;5089978;28;20318;-78
2022/12/08 08:33:38;;;;;;;5.03;1.10;;;23.30;55.40;;;;;;5092682;28;20202;-79
2022/12/08 08:36:10;;;;;;;4.55;0.90;;;23.10;55.60;;;;;;5092631;28;20227;-78
2022/12/08 08:38:43;;;;;;;4.22;1.00;;;22.80;55.10;;;;;;5090873;28;20286;-78
2022/12/08 08:41:14;;;;;;;2.55;0.80;;;22.80;56.10;;;;;;5086233;28;20226;-79
2022/12/08 08:43:47;;;;;;;2.47;0.98;;;22.70;56.60;;;;;;5092869;28;20199;-80
2022/12/08 08:46:18;;;;;;;2.05;0.70;;;22.60;57.30;;;;;;5090842;28;20195;-80
2022/12/08 08:48:48;;;;;;;2.00;0.73;;;22.60;57.50;;;;;;5093146;28;20207;-79
2022/12/08 08:51:19;;;;;;;4.18;1.10;;;22.60;57.10;;;;;;5092653;28;20221;-80
2022/12/08 08:53:50;;;;;;;4.00;1.02;;;22.60;57.90;;;;;;5097579;28;20252;-80
2022/12/08 08:56:21;;;;;;;2.95;1.30;;;22.50;58.30;;;;;;5078383;28;20191;-80
2022/12/08 08:58:56;;;;;;;3.92;1.10;;;22.50;58.10;;;;;;5095756;28;20191;-82
2022/12/08 09:01:30;;;;;;;4.18;1.17;;;22.20;59.10;;;;;;5076657;28;20203;-80
2022/12/08 09:04:01;;;;;;;3.15;0.98;;;22.20;60.30;;;;;;5094468;28;20329;-81
2022/12/08 09:06:32;;;;;;;4.75;1.00;;;22.10;60.80;;;;;;5121632;28;20227;-82
2022/12/08 09:09:03;;;;;;;5.30;1.30;;;22.10;62.60;;;;;;5105496;28;20199;-81
2022/12/08 09:11:34;;;;;;;6.85;1.40;;;22.10;62.20;;;;;;5108357;28;20207;-80
2022/12/08 09:14:10;;;;;;;5.13;1.60;;;21.90;62.20;;;;;;5103371;28;20227;-79
2022/12/08 09:16:41;;;;;;;5.13;1.48;;;21.90;63.50;;;;;;5098667;28;20282;-80
2022/12/08 09:19:12;;;;;;;5.32;1.38;;;22.00;63.30;;;;;;5101432;28;20199;-80
2022/12/08 09:21:44;;;;;;;4.88;1.50;;;22.00;64.30;;;;;;5100660;28;20191;-81
2022/12/08 09:24:16;;;;;;;3.33;1.25;;;21.90;64.20;;;;;;5103943;28;20295;-80
2022/12/08 09:26:48;;;;;;;5.18;1.30;;;21.90;64.40;;;;;;5098922;28;20252;-80
2022/12/08 09:29:23;;;;;;;2.85;0.93;;;21.80;64.00;;;;;;5101792;28;20264;-80
2022/12/08 09:31:55;;;;;;;5.65;1.30;;;21.70;64.10;;;;;;5105396;28;20222;-81
2022/12/08 09:34:30;;;;;;;4.40;1.20;;;21.80;64.70;;;;;;5103546;28;20206;-80
2022/12/08 09:37:01;;;;;;;3.78;0.90;;;21.90;65.10;;;;;;5090614;28;20558;-81
2022/12/08 09:39:41;;;;;;;3.25;1.10;;;21.80;64.90;;;;;;5088047;28;20206;-81
2022/12/08 09:42:15;;;;;;;3.10;0.70;;;21.80;66.20;;;;;;5103644;28;20198;-83
2022/12/08 09:45:21;;;;;;;3.55;1.15;;;21.70;65.50;;;;;;5102298;28;20263;-81
2022/12/08 09:48:13;;;;;;;7.65;1.60;;;21.60;65.90;;;;;;5091127;28;20216;-80
2022/12/08 09:50:48;;;;;;;3.67;1.10;;;21.70;66.60;;;;;;5105114;28;20690;-80
2022/12/08 09:53:21;;;;;;;4.80;1.27;;;21.60;66.70;;;;;;5103719;28;20248;-81
2022/12/08 09:55:54;;;;;;;5.32;1.50;;;21.50;66.30;;;;;;5096967;28;20195;-80
2022/12/08 09:58:35;;;;;;;4.35;2.22;;;21.50;67.80;;;;;;5099703;28;20196;-80
2022/12/08 10:01:14;;;;;;;8.00;1.92;;;21.40;67.60;;;;;;5101593;28;20226;-82
2022/12/08 10:03:45;;;;;;;4.05;1.25;;;21.40;68.00;;;;;;5104743;28;20198;-80
2022/12/08 10:06:23;;;;;;;6.22;1.00;;;21.40;68.20;;;;;;5105971;28;20192;-81
2022/12/08 10:09:12;;;;;;;6.50;1.30;;;21.40;68.40;;;;;;5101519;28;20194;-81
2022/12/08 10:11:50;;;;;;;4.30;1.13;;;21.40;68.60;;;;;;5088042;28;20280;-81
2022/12/08 10:14:31;;;;;;;2.53;0.93;;;21.40;68.90;;;;;;5101843;28;20230;-82
2022/12/08 10:17:14;;;;;;;4.88;1.20;;;21.50;69.00;;;;;;5100215;28;20199;-80
2022/12/08 10:19:46;;;;;;;4.93;1.08;;;21.50;68.10;;;;;;5090962;28;20199;-80
2022/12/08 10:22:22;;;;;;;3.08;1.00;;;21.40;67.60;;;;;;5098149;28;20210;-81
2022/12/08 10:25:00;;;;;;;4.10;1.10;;;21.30;68.90;;;;;;5099711;28;20206;-80
2022/12/08 10:27:32;;;;;;;5.20;1.35;;;21.30;68.70;;;;;;5101160;28;20201;-80
2022/12/08 10:30:05;;;;;;;5.85;1.48;;;21.30;69.20;;;;;;5104494;28;20193;-81
2022/12/08 10:32:41;;;;;;;5.05;1.23;;;21.30;69.80;;;;;;5100643;28;20282;-80
2022/12/08 10:35:13;;;;;;;5.85;1.60;;;21.30;69.90;;;;;;5102988;28;20658;-80
2022/12/08 10:37:56;;;;;;;3.95;1.30;;;21.30;70.40;;;;;;5105746;28;20219;-80
2022/12/08 10:40:30;;;;;;;4.95;1.50;;;21.20;71.70;;;;;;5100896;28;20209;-80
2022/12/08 10:43:06;;;;;;;7.72;1.80;;;21.20;72.10;;;;;;5094411;28;20191;-81
2022/12/08 10:45:41;;;;;;;4.32;1.50;;;21.20;73.40;;;;;;5104325;28;20218;-80
2022/12/08 10:48:22;;;;;;;6.07;1.38;;;21.10;72.90;;;;;;5100152;28;20195;-81
2022/12/08 10:51:04;;;;;;;5.05;1.38;;;21.10;73.20;;;;;;5089964;28;20257;-80
2022/12/08 10:53:36;;;;;;;4.78;1.17;;;21.10;73.70;;;;;;5100570;28;20226;-80
2022/12/08 10:56:17;;;;;;;3.03;1.00;;;21.10;73.80;;;;;;5103599;28;20198;-80
2022/12/08 10:58:51;;;;;;;4.45;1.02;;;21.10;73.80;;;;;;5107137;28;20733;-81
2022/12/08 11:01:25;;;;;;;6.40;1.33;;;21.10;73.80;;;;;;5099493;28;20584;-81
2022/12/08 11:04:08;;;;;;;3.17;1.20;;;21.20;73.50;;;;;;5105699;28;20189;-82
2022/12/08 11:06:43;;;;;;;6.55;1.10;;;21.10;74.80;;;;;;5106990;28;20199;-81
2022/12/08 11:09:45;;;;;;;3.58;0.70;;;21.20;75.60;;;;;;5094961;28;20187;-80
2022/12/08 11:12:19;;;;;;;5.93;1.23;;;21.10;75.40;;;;;;5097204;28;20235;-81
2022/12/08 11:14:53;;;;;;;4.55;1.30;;;21.10;77.10;;;;;;5096277;28;20752;-81
2022/12/08 11:17:28;;;;;;;4.40;1.08;;;21.10;77.40;;;;;;5093392;28;20699;-82
2022/12/08 11:20:05;;;;;;;4.43;1.17;;;21.10;77.80;;;;;;5095422;28;20198;-81
2022/12/08 11:22:41;;;;;;;7.55;1.35;;;21.00;77.90;;;;;;5108929;28;20195;-82
2022/12/08 11:25:19;;;;;;;6.13;1.30;;;21.00;77.80;;;;;;5103822;28;20202;-82
2022/12/08 11:27:51;;;;;;;7.72;1.38;;;21.00;79.10;;;;;;5100299;28;20285;-81
2022/12/08 11:30:23;;;;;;;5.68;1.20;;;21.00;78.90;;;;;;5104246;28;20209;-82
2022/12/08 11:32:58;;;;;;;5.65;1.48;;;20.80;79.50;;;;;;5097704;28;20223;-82
2022/12/08 11:35:35;;;;;;;4.57;1.45;;;20.80;79.90;;;;;;5083834;28;20192;-81
2022/12/08 11:38:12;;;;;;;5.20;1.33;;;20.80;80.00;;;;;;5091863;28;20305;-81
2022/12/08 11:40:45;;;;;;;3.00;1.10;;;20.70;81.00;;;;;;5086152;28;20223;-81
2022/12/08 11:43:20;;;;;;;3.53;1.10;;;20.70;81.50;;;;;;5098864;28;20195;-80
2022/12/08 11:45:59;;;;;;;4.95;1.27;;;20.70;81.20;;;;;;5094712;28;20191;-80
2022/12/08 11:48:38;;;;;;;5.30;1.50;;;20.80;81.20;;;;;;5098457;28;20199;-82
2022/12/08 11:51:19;;;;;;;3.00;1.23;;;20.80;82.20;;;;;;5101361;28;20218;-82
2022/12/08 11:54:01;;;;;;;7.00;1.50;;;20.80;82.20;;;;;;5097859;28;20223;-80
2022/12/08 11:56:36;;;;;;;5.32;1.40;;;20.70;81.70;;;;;;5096119;28;20195;-81
2022/12/08 11:59:18;;;;;;;7.95;1.40;;;20.70;82.40;;;;;;5097607;28;20191;-81
2022/12/08 12:01:49;;;;;;;4.75;1.40;;;20.70;82.00;;;;;;5095969;28;20199;-81
2022/12/08 12:04:26;;;;;;;8.65;1.23;;;20.60;80.90;;;;;;5101116;28;20214;-81
2022/12/08 12:07:37;;;;;;;4.82;1.30;;;20.60;81.10;;;;;;5100696;28;20219;-80
2022/12/08 12:10:31;;;;;;;3.83;1.15;;;20.60;81.50;;;;;;5051399;28;20223;-80
2022/12/08 12:13:21;;;;;;;5.55;1.38;;;20.60;82.10;;;;;;5093936;28;20770;-80
2022/12/08 12:16:31;;;;;;;5.75;1.30;;;20.60;82.10;;;;;;5108177;28;20621;-81
2022/12/08 12:19:04;;;;;;;3.47;1.35;;;20.50;81.90;;;;;;5098288;28;20199;-81
2022/12/08 12:21:40;;;;;;;5.22;1.10;;;20.50;83.30;;;;;;5099836;28;20199;-81
2022/12/08 12:24:20;;;;;;;4.10;1.17;;;20.50;83.10;;;;;;5094234;28;20215;-80
2022/12/08 12:27:00;;;;;;;3.28;1.20;;;20.50;85.10;;;;;;5096397;28;20198;-82
2022/12/08 12:29:34;;;;;;;7.18;1.65;;;20.40;85.10;;;;;;5092104;28;20633;-81
2022/12/08 12:32:08;;;;;;;3.35;1.20;;;20.50;84.90;;;;;;5096908;28;20211;-81
2022/12/08 12:34:47;;;;;;;6.57;1.25;;;20.50;84.50;;;;;;5098333;28;20199;-80
2022/12/08 12:37:20;;;;;;;5.55;1.55;;;20.50;87.00;;;;;;5086595;28;20217;-81
2022/12/08 12:40:01;;;;;;;8.25;1.77;;;20.50;86.30;;;;;;5097909;28;20660;-80
2022/12/08 12:42:42;;;;;;;5.80;1.67;;;20.50;87.00;;;;;;5097489;28;20282;-80
2022/12/08 12:45:32;;;;;;;3.80;1.52;;;20.40;87.10;;;;;;5098557;28;20282;-81
2022/12/08 12:48:27;;;;;;;5.75;1.60;;;20.40;88.60;;;;;;5091984;28;20187;-80
2022/12/08 12:51:01;;;;;;;7.35;1.60;;;20.40;89.30;;;;;;5097666;28;20191;-80
2022/12/08 12:53:51;;;;;;;6.13;1.42;;;20.40;90.20;;;;;;5097600;28;20227;-81
2022/12/08 12:56:55;;;;;;;6.63;1.40;;;20.40;90.00;;;;;;5092477;28;20691;-81
2022/12/08 12:59:47;;;;;;;5.63;1.50;;;20.30;90.20;;;;;;5069292;28;20237;-81
2022/12/08 13:02:28;;;;;;;6.32;1.40;;;20.30;90.60;;;;;;5097113;28;20203;-81
2022/12/08 13:05:09;;;;;;;8.00;1.90;;;20.30;90.40;;;;;;5088820;28;20200;-81
2022/12/08 13:07:46;;;;;;;6.15;1.40;;;20.30;89.30;;;;;;5088007;28;20220;-80
2022/12/08 13:10:22;;;;;;;5.05;1.20;;;20.30;89.30;;;;;;5079562;28;20226;-81
2022/12/08 13:13:20;;;;;;;4.50;1.30;;;20.30;90.50;;;;;;5088587;28;20230;-81
2022/12/08 13:15:54;;;;;;;4.15;1.30;;;20.30;90.20;;;;;;5088175;28;21164;-80
2022/12/08 13:18:29;;;;;;;4.20;1.50;;;20.30;90.20;;;;;;5093567;28;20203;-80
2022/12/08 13:21:06;;;;;;;4.60;1.40;;;20.30;90.60;;;;;;5091003;28;20282;-80
2022/12/08 13:23:50;;;;;;;5.25;1.42;;;20.40;91.00;;;;;;5091717;28;20202;-80
2022/12/08 13:26:26;;;;;;;5.05;1.52;;;20.40;91.20;;;;;;5063121;28;20203;-80
2022/12/08 13:32:51;;;;;;;4.00;1.33;;;20.30;91.50;;;;;;5079255;28;20219;-81
2022/12/08 13:39:16;;;;;;;6.18;1.20;;;19.80;91.00;;;;;;5091674;28;20201;-80
2022/12/08 13:45:22;;;;;;;3.92;1.30;;;19.70;91.90;;;;;;5066062;28;20222;-81
2022/12/08 13:47:59;;;;;;;5.88;1.30;;;19.70;91.90;;;;;;5064321;28;20568;-79